Time;durP1;ratioP1;P1;durP2;ratioP2;P2;SDS_P1;SDS_P2;PMS_P1;PMS_P2;Temp;Humidity;BMP_temperature;BMP_pressure;BME280_temperature;BME280_humidity;BME280_pressure;Samples;Min_cycle;Max_cycle;Signal;HPM_P1;HPM_P2
2023/02/05 00:01:20;;;;;;;2.50;2.00;;;;;;;-2.97;65.09;99934.15;107251;1257;60510;-38
2023/02/05 00:03:50;;;;;;;3.40;1.80;;;;;;;-3.00;65.00;99934.09;107184;1257;61204;-38
2023/02/05 00:06:18;;;;;;;2.80;1.60;;;;;;;-2.99;65.08;99937.54;107165;1257;74857;-38
2023/02/05 00:08:47;;;;;;;2.80;1.80;;;;;;;-2.91;65.06;99937.26;107216;1257;68796;-38
2023/02/05 00:11:16;;;;;;;4.10;2.00;;;;;;;-2.86;65.16;99935.96;107457;1253;74203;-38
2023/02/05 00:13:44;;;;;;;2.80;1.70;;;;;;;-2.81;65.07;99932.43;107487;1253;61194;-38
2023/02/05 00:16:18;;;;;;;2.00;1.80;;;;;;;-2.80;64.75;99936.84;107452;1253;61608;-38
2023/02/05 00:18:46;;;;;;;4.70;2.40;;;;;;;-2.84;64.64;99936.50;107471;1253;74800;-38
2023/02/05 00:21:15;;;;;;;3.00;2.10;;;;;;;-2.88;64.70;99940.04;106664;1253;1003517;-38
2023/02/05 00:23:44;;;;;;;5.10;1.90;;;;;;;-2.90;64.62;99943.48;107466;1253;72989;-38
2023/02/05 00:26:13;;;;;;;2.70;1.90;;;;;;;-2.93;64.68;99947.11;107451;1253;61252;-38
2023/02/05 00:28:43;;;;;;;2.70;1.80;;;;;;;-2.99;64.50;99946.98;107479;1253;61212;-38
2023/02/05 00:31:16;;;;;;;2.00;1.50;;;;;;;-3.05;64.66;99947.20;107478;1257;74985;-38
2023/02/05 00:33:46;;;;;;;2.40;1.80;;;;;;;-3.10;64.59;99944.62;107528;1253;69724;-38
2023/02/05 00:36:14;;;;;;;3.70;1.60;;;;;;;-3.15;64.69;99944.23;107492;1253;73522;-38
2023/02/05 00:38:43;;;;;;;2.80;2.00;;;;;;;-3.18;64.80;99944.35;107412;1253;61537;-38
2023/02/05 00:41:13;;;;;;;3.00;1.90;;;;;;;-3.24;64.83;99941.13;107538;1253;61270;-38
2023/02/05 00:43:43;;;;;;;2.20;1.50;;;;;;;-3.27;64.63;99941.44;107531;1257;74784;-38
2023/02/05 00:46:12;;;;;;;3.50;2.00;;;;;;;-3.27;64.64;99942.48;107379;1253;67942;-38
2023/02/05 00:48:41;;;;;;;3.60;2.10;;;;;;;-3.28;64.83;99943.59;107482;1253;72926;-38
2023/02/05 00:51:10;;;;;;;3.10;2.30;;;;;;;-3.29;64.85;99947.68;107528;1253;61267;-38
2023/02/05 00:53:40;;;;;;;3.10;1.90;;;;;;;-3.35;65.07;99948.11;107524;1253;61337;-38
2023/02/05 00:56:08;;;;;;;3.20;1.90;;;;;;;-3.38;65.33;99943.05;107523;1253;73682;-38
2023/02/05 00:58:37;;;;;;;2.10;1.80;;;;;;;-3.41;65.43;99938.10;107545;1253;68217;-38
2023/02/05 01:01:05;;;;;;;1.70;1.50;;;;;;;-3.37;65.62;99947.67;107435;1253;73891;-38
2023/02/05 01:03:34;;;;;;;1.90;1.50;;;;;;;-3.36;65.75;99945.29;107493;1253;61627;-38
2023/02/05 01:06:04;;;;;;;2.60;1.70;;;;;;;-3.38;65.71;99947.92;107501;1253;61401;-38
2023/02/05 01:08:33;;;;;;;2.90;2.00;;;;;;;-3.37;66.03;99949.21;107434;1253;72943;-38
2023/02/05 01:11:05;;;;;;;2.00;1.60;;;;;;;-3.39;65.99;99932.59;107433;1253;70041;-38
2023/02/05 01:13:34;;;;;;;2.60;1.60;;;;;;;-3.35;65.84;99944.04;107405;1253;73733;-37
2023/02/05 01:16:03;;;;;;;1.90;1.40;;;;;;;-3.31;65.95;99944.00;107456;1253;62946;-38
2023/02/05 01:18:32;;;;;;;2.40;1.50;;;;;;;-3.19;66.01;99945.15;107459;1253;61200;-38
2023/02/05 01:21:00;;;;;;;2.60;1.90;;;;;;;-3.13;66.04;99943.87;107457;1257;75138;-38
2023/02/05 01:23:29;;;;;;;2.20;1.90;;;;;;;-3.12;66.32;99945.05;107466;1253;68845;-37
2023/02/05 01:25:58;;;;;;;2.20;1.70;;;;;;;-3.05;66.38;99940.83;107493;1253;74470;-37
2023/02/05 01:28:29;;;;;;;2.80;1.60;;;;;;;-3.01;66.32;99938.20;107490;1253;61193;-38
2023/02/05 01:30:57;;;;;;;3.10;1.70;;;;;;;-3.00;66.32;99937.16;107474;1253;61454;-38
2023/02/05 01:33:26;;;;;;;3.10;1.70;;;;;;;-3.03;66.38;99936.07;107507;1253;75024;-38
2023/02/05 01:35:55;;;;;;;1.90;1.70;;;;;;;-3.06;66.71;99937.98;107555;1257;69582;-38
2023/02/05 01:38:24;;;;;;;2.80;1.50;;;;;;;-3.10;66.90;99943.29;107463;1253;73721;-38
2023/02/05 01:40:53;;;;;;;2.80;1.70;;;;;;;-3.13;67.38;99943.23;107403;1253;61553;-38
2023/02/05 01:43:21;;;;;;;2.70;1.60;;;;;;;-3.07;67.68;99939.98;107444;1253;61559;-38
2023/02/05 01:46:02;;;;;;;2.20;1.60;;;;;;;-2.95;67.79;99937.18;107509;1253;74836;-38
2023/02/05 01:48:35;;;;;;;2.30;1.80;;;;;;;-2.87;68.04;99934.05;107576;1253;68744;-38
2023/02/05 01:51:05;;;;;;;4.10;2.30;;;;;;;-2.87;68.21;99931.13;107524;1257;73127;-38
2023/02/05 01:53:34;;;;;;;2.30;1.90;;;;;;;-2.88;68.43;99932.61;107478;1254;60411;-38
2023/02/05 01:56:15;;;;;;;7.20;2.20;;;;;;;-2.87;68.64;99929.91;106694;1253;1003638;-38
2023/02/05 01:58:47;;;;;;;2.30;1.90;;;;;;;-2.85;68.85;99933.59;107529;1253;74315;-39
2023/02/05 02:01:15;;;;;;;3.00;2.00;;;;;;;-2.88;68.85;99931.06;107513;1253;69359;-38
2023/02/05 02:03:44;;;;;;;3.50;2.20;;;;;;;-2.92;68.96;99936.95;107299;1253;73149;-38
2023/02/05 02:06:13;;;;;;;2.60;2.00;;;;;;;-2.94;69.16;99934.39;107438;1253;60654;-38
2023/02/05 02:08:41;;;;;;;2.20;1.70;;;;;;;-2.89;69.22;99937.27;107433;1253;61440;-38
2023/02/05 02:11:10;;;;;;;2.00;1.80;;;;;;;-2.80;69.20;99938.98;107567;1254;75078;-39
2023/02/05 02:13:39;;;;;;;3.40;1.90;;;;;;;-2.75;69.35;99937.14;106839;1254;1003443;-38
2023/02/05 02:16:08;;;;;;;3.30;2.10;;;;;;;-2.76;69.20;99933.25;107448;1254;73877;-38
2023/02/05 02:18:37;;;;;;;2.80;2.10;;;;;;;-2.79;68.99;99930.75;107630;1256;60597;-39
2023/02/05 02:21:39;;;;;;;3.10;2.20;;;;;;;-2.81;69.22;99930.79;107542;1253;61522;-39
2023/02/05 02:24:43;;;;;;;4.40;2.10;;;;;;;-2.82;69.34;99931.59;106707;1253;1003793;-39
2023/02/05 02:27:34;;;;;;;3.40;2.50;;;;;;;-2.86;69.51;99933.30;107535;1253;69807;-39
2023/02/05 02:30:14;;;;;;;4.10;1.90;;;;;;;-2.88;69.63;99932.23;107458;1253;73828;-38
2023/02/05 02:32:50;;;;;;;3.60;2.10;;;;;;;-2.85;69.59;99929.59;107497;1253;62144;-39
2023/02/05 02:35:26;;;;;;;3.50;2.10;;;;;;;-2.76;69.63;99930.61;107430;1258;61541;-39
2023/02/05 02:38:19;;;;;;;4.40;2.30;;;;;;;-2.72;69.75;99931.84;107526;1257;74968;-37
2023/02/05 02:40:54;;;;;;;3.60;2.50;;;;;;;-2.70;69.77;99932.34;107451;1253;69784;-38
2023/02/05 02:43:44;;;;;;;3.20;2.30;;;;;;;-2.72;69.63;99935.09;107400;1253;73515;-38
2023/02/05 02:46:27;;;;;;;3.60;2.50;;;;;;;-2.72;69.68;99935.30;107504;1253;60929;-38
2023/02/05 02:48:57;;;;;;;3.70;2.30;;;;;;;-2.74;69.79;99937.10;107564;1253;61482;-38
2023/02/05 02:51:25;;;;;;;3.00;2.20;;;;;;;-2.77;69.84;99936.13;107576;1253;75064;-38
2023/02/05 02:53:57;;;;;;;2.90;2.10;;;;;;;-2.79;69.93;99939.77;107257;1253;69729;-38
2023/02/05 02:56:26;;;;;;;3.60;2.10;;;;;;;-2.75;69.89;99942.13;107453;1253;70696;-38
2023/02/05 02:58:57;;;;;;;;;;;;;;;-2.64;69.70;99942.34;107513;1253;60435;-38
2023/02/05 03:01:27;;;;;;;3.90;2.40;;;;;;;-2.66;69.58;99946.36;107376;1253;60540;-38
2023/02/05 03:04:18;;;;;;;2.70;2.10;;;;;;;-2.67;69.87;99948.23;106605;1253;1003829;-38
2023/02/05 03:06:48;;;;;;;3.30;2.30;;;;;;;-2.60;69.77;99944.96;107317;1253;70039;-38
2023/02/05 03:09:29;;;;;;;3.40;2.20;;;;;;;-2.61;69.72;99940.70;107542;1257;73896;-38
2023/02/05 03:11:57;;;;;;;3.10;2.20;;;;;;;-2.63;69.61;99942.88;106664;1259;1002919;-38
2023/02/05 03:14:27;;;;;;;2.80;2.10;;;;;;;-2.66;69.53;99942.38;107574;1253;61215;-38
2023/02/05 03:16:56;;;;;;;3.80;2.20;;;;;;;-2.70;69.65;99943.31;107557;1253;74704;-38
2023/02/05 03:19:25;;;;;;;2.30;1.80;;;;;;;-2.73;69.52;99942.83;107500;1253;69836;-39
2023/02/05 03:21:55;;;;;;;2.20;1.80;;;;;;;-2.76;69.62;99937.29;107531;1253;73879;-38
2023/02/05 03:24:23;;;;;;;2.90;2.30;;;;;;;-2.70;69.66;99936.94;107364;1259;60518;-38
2023/02/05 03:26:53;;;;;;;3.40;2.20;;;;;;;-2.68;69.65;99937.08;106749;1253;1002851;-38
2023/02/05 03:29:29;;;;;;;2.80;2.40;;;;;;;-2.68;69.85;99932.50;107534;1253;74681;-38
2023/02/05 03:32:52;;;;;;;3.70;2.70;;;;;;;-2.70;69.75;99933.91;107409;1253;69289;-38
2023/02/05 03:35:24;;;;;;;5.10;2.60;;;;;;;-2.75;69.99;99937.56;107216;1253;73955;-38
2023/02/05 03:38:03;;;;;;;3.50;2.60;;;;;;;-2.79;70.33;99936.27;107530;1253;60574;-38
2023/02/05 03:40:41;;;;;;;2.30;1.80;;;;;;;-2.79;70.29;99935.95;106837;1253;1003044;-38
2023/02/05 03:43:43;;;;;;;4.00;2.50;;;;;;;-2.81;70.36;99938.70;107548;1253;75302;-38
2023/02/05 03:46:18;;;;;;;3.00;2.30;;;;;;;-2.78;70.26;99936.80;107575;1253;69651;-38
2023/02/05 03:48:47;;;;;;;2.70;2.20;;;;;;;-2.72;70.28;99937.95;107366;1253;73946;-38
2023/02/05 03:51:34;;;;;;;4.50;3.00;;;;;;;-2.67;70.38;99943.65;107322;1253;60786;-38
2023/02/05 03:54:08;;;;;;;3.90;2.50;;;;;;;-2.62;70.44;99936.92;107498;1253;61252;-38
2023/02/05 03:56:56;;;;;;;3.50;2.40;;;;;;;-2.61;70.43;99937.84;107282;1253;73777;-38
2023/02/05 03:59:25;;;;;;;4.20;2.80;;;;;;;-2.62;70.29;99937.36;107482;1253;69673;-38
2023/02/05 04:01:54;;;;;;;3.90;2.80;;;;;;;-2.65;70.43;99940.89;107186;1253;72458;-38
2023/02/05 04:05:14;;;;;;;4.00;2.90;;;;;;;-2.58;70.50;99942.05;104204;1291;600652;-37
2023/02/05 04:07:42;;;;;;;3.70;2.60;;;;;;;-2.58;70.34;99942.95;106675;1265;61766;-37
2023/02/05 04:10:11;;;;;;;3.90;2.70;;;;;;;-2.50;70.14;99950.36;106706;1266;61518;-38
2023/02/05 04:12:41;;;;;;;4.40;2.60;;;;;;;-2.46;70.18;99950.75;106662;1266;73207;-38
2023/02/05 04:15:09;;;;;;;3.40;2.60;;;;;;;-2.42;70.21;99953.63;106655;1266;69792;-37
2023/02/05 04:17:40;;;;;;;5.30;2.80;;;;;;;-2.37;70.28;99958.02;106547;1268;219144;-39
2023/02/05 04:20:09;;;;;;;4.90;3.00;;;;;;;-2.29;70.16;99959.00;106865;1264;59533;-39
2023/02/05 04:22:38;;;;;;;4.70;3.10;;;;;;;-2.25;70.10;99957.79;106134;1264;1003005;-38
2023/02/05 04:25:07;;;;;;;4.00;2.90;;;;;;;-2.25;69.98;99963.31;106829;1264;72209;-39
2023/02/05 04:27:36;;;;;;;5.00;3.10;;;;;;;-2.28;69.68;99963.42;106751;1264;69944;-39
2023/02/05 04:30:05;;;;;;;4.10;3.00;;;;;;;-2.34;69.74;99969.18;106142;1264;1003388;-38
2023/02/05 04:32:36;;;;;;;3.10;2.20;;;;;;;-2.38;69.82;99971.23;106841;1265;61098;-39
2023/02/05 04:35:05;;;;;;;5.10;2.80;;;;;;;-2.32;69.96;99974.70;106874;1264;60499;-39
2023/02/05 04:37:33;;;;;;;4.20;2.80;;;;;;;-2.25;69.91;99969.21;106879;1267;74248;-38
2023/02/05 04:40:03;;;;;;;3.40;2.60;;;;;;;-2.20;69.95;99969.17;106753;1264;69963;-39
2023/02/05 04:42:31;;;;;;;3.00;2.40;;;;;;;-2.17;69.82;99967.80;106797;1264;73680;-39
2023/02/05 04:45:00;;;;;;;4.00;3.10;;;;;;;-2.16;69.82;99971.15;106142;1266;1003001;-37
2023/02/05 04:47:29;;;;;;;4.70;3.00;;;;;;;-2.16;69.75;99974.13;106796;1263;61030;-37
2023/02/05 04:49:57;;;;;;;3.70;2.80;;;;;;;-2.18;69.56;99974.02;106160;1262;1003618;-38
2023/02/05 04:52:26;;;;;;;3.30;3.00;;;;;;;-2.21;69.69;99973.73;107015;1263;69727;-38
2023/02/05 04:54:54;;;;;;;4.10;3.00;;;;;;;-2.23;69.76;99972.02;107023;1261;73839;-38
2023/02/05 04:57:23;;;;;;;4.40;3.00;;;;;;;-2.24;69.82;99980.48;106924;1260;62234;-38
2023/02/05 04:59:51;;;;;;;3.50;2.50;;;;;;;-2.15;69.81;99981.24;107029;1261;61514;-38
2023/02/05 05:02:20;;;;;;;3.60;2.70;;;;;;;-2.04;69.62;99981.61;106997;1263;74177;-38
2023/02/05 05:04:48;;;;;;;5.00;3.50;;;;;;;-1.97;69.74;99984.34;107055;1264;69316;-38
2023/02/05 05:07:17;;;;;;;3.00;2.70;;;;;;;-1.91;69.57;99980.31;107056;1261;72911;-38
2023/02/05 05:09:46;;;;;;;4.50;3.20;;;;;;;-1.88;69.44;99983.08;107006;1261;60636;-39
2023/02/05 05:12:14;;;;;;;4.10;2.70;;;;;;;-1.86;69.46;99987.98;106248;1261;1002856;-39
2023/02/05 05:14:43;;;;;;;4.90;3.00;;;;;;;-1.84;69.16;99992.39;106266;1262;1002890;-39
2023/02/05 05:17:13;;;;;;;3.70;3.10;;;;;;;-1.90;68.98;99993.17;107037;1261;69897;-39
2023/02/05 05:19:42;;;;;;;5.30;3.10;;;;;;;-1.95;69.17;99994.55;106992;1262;73522;-39
2023/02/05 05:22:11;;;;;;;4.50;3.20;;;;;;;-1.98;69.26;100002.66;106989;1262;60649;-38
2023/02/05 05:24:39;;;;;;;4.60;3.50;;;;;;;-1.98;69.52;100010.11;106508;1256;1003834;-39
2023/02/05 05:27:08;;;;;;;5.60;3.20;;;;;;;-1.92;69.43;100006.13;107268;1256;73879;-39
2023/02/05 05:29:37;;;;;;;5.60;3.10;;;;;;;-1.82;69.27;100006.48;107155;1256;69587;-38
2023/02/05 05:32:06;;;;;;;6.20;4.10;;;;;;;-1.79;69.28;100007.66;105731;1256;1003533;-39
2023/02/05 05:34:35;;;;;;;6.80;4.20;;;;;;;-1.78;69.35;100011.33;107238;1256;60390;-38
2023/02/05 05:37:03;;;;;;;6.50;4.20;;;;;;;-1.77;69.06;100010.96;106581;1256;1002635;-38
2023/02/05 05:45:07;;;;;;;7.50;4.40;;;;;;;-1.91;69.23;100017.92;107172;1257;73921;-38
2023/02/05 05:47:36;;;;;;;6.00;4.50;;;;;;;-1.99;69.38;100021.25;107211;1256;59775;-38
2023/02/05 05:50:06;;;;;;;7.80;4.70;;;;;;;-2.10;69.48;100011.23;107185;1256;61552;-38
2023/02/05 05:52:36;;;;;;;5.20;4.00;;;;;;;-2.01;69.62;100024.13;107239;1256;72645;-38
2023/02/05 05:55:06;;;;;;;4.90;3.90;;;;;;;-1.93;69.63;100021.76;105757;1256;1003795;-38
2023/02/05 05:57:34;;;;;;;4.40;3.20;;;;;;;-1.94;69.64;100024.46;107036;1256;73898;-38
2023/02/05 06:00:04;;;;;;;6.30;4.40;;;;;;;-1.94;69.96;100027.44;107254;1256;61250;-38
2023/02/05 06:02:40;;;;;;;5.00;4.10;;;;;;;-1.93;69.86;100024.36;107152;1256;61331;-38
2023/02/05 06:05:09;;;;;;;5.90;4.60;;;;;;;-1.92;69.95;100029.20;107277;1256;74187;-38
2023/02/05 06:07:38;;;;;;;6.40;5.10;;;;;;;-1.92;70.00;100033.50;107290;1257;69985;-38
2023/02/05 06:10:07;;;;;;;7.20;4.70;;;;;;;-1.94;69.98;100031.11;107302;1256;73556;-38
2023/02/05 06:12:36;;;;;;;4.60;3.70;;;;;;;-1.99;69.91;100036.13;107275;1257;59645;-38
2023/02/05 06:15:05;;;;;;;6.30;4.90;;;;;;;-2.03;70.07;100035.86;107293;1259;61521;-37
2023/02/05 06:17:33;;;;;;;6.00;4.60;;;;;;;-1.99;70.20;100039.44;107312;1257;72764;-38
2023/02/05 06:20:02;;;;;;;8.80;4.40;;;;;;;-1.92;70.35;100039.63;107265;1257;70185;-38
2023/02/05 06:22:31;;;;;;;5.80;4.50;;;;;;;-1.88;70.45;100046.02;107313;1256;73941;-38
2023/02/05 06:25:01;;;;;;;7.00;5.00;;;;;;;-1.88;70.49;100042.39;107215;1256;60577;-38
2023/02/05 06:27:29;;;;;;;8.50;5.30;;;;;;;-1.86;70.51;100045.16;106415;1256;1016362;-38
2023/02/05 06:29:58;;;;;;;6.20;4.80;;;;;;;-1.86;70.43;100046.06;106506;1256;1003036;-38
2023/02/05 06:32:26;;;;;;;7.20;5.10;;;;;;;-1.86;70.55;100047.40;107148;1257;69960;-38
2023/02/05 06:34:55;;;;;;;7.40;5.30;;;;;;;-1.84;70.54;100046.71;107226;1256;73552;-38
2023/02/05 06:37:24;;;;;;;7.10;4.80;;;;;;;-1.85;70.51;100046.83;107235;1257;62062;-38
2023/02/05 06:40:14;;;;;;;7.10;4.70;;;;;;;-1.82;70.37;100046.23;107205;1257;61601;-38
2023/02/05 06:42:43;;;;;;;;;;;;;;;-1.80;70.50;100049.59;107201;1257;71579;-38
2023/02/05 06:45:11;;;;;;;7.10;5.00;;;;;;;-1.86;70.67;100054.52;107234;1256;69954;-37
2023/02/05 06:47:40;;;;;;;6.40;4.70;;;;;;;-1.91;70.76;100056.40;107250;1261;73878;-38
2023/02/05 06:50:09;;;;;;;7.00;5.00;;;;;;;-1.89;70.76;100063.71;107282;1256;59884;-38
2023/02/05 06:52:37;;;;;;;7.80;5.50;;;;;;;-1.94;70.76;100068.53;106541;1256;1003311;-38
2023/02/05 06:55:06;;;;;;;7.70;5.00;;;;;;;-1.97;71.01;100069.52;107256;1256;74282;-38
2023/02/05 06:57:34;;;;;;;7.20;5.30;;;;;;;-1.97;71.20;100069.30;107254;1256;68269;-38
2023/02/05 07:00:04;;;;;;;6.50;4.70;;;;;;;-1.92;70.88;100074.00;107224;1256;72789;-38
2023/02/05 07:02:33;;;;;;;7.50;5.10;;;;;;;-1.87;71.00;100076.27;107296;1259;60544;-38
2023/02/05 07:05:02;;;;;;;8.40;5.20;;;;;;;-1.83;71.22;100072.70;107276;1256;59636;-38
2023/02/05 07:07:32;;;;;;;7.60;5.10;;;;;;;-1.77;71.20;100075.06;107326;1256;74073;-38
2023/02/05 07:10:01;;;;;;;7.70;5.60;;;;;;;-1.72;70.83;100076.69;107273;1261;68660;-38
2023/02/05 07:12:30;;;;;;;6.60;4.50;;;;;;;-1.69;70.73;100081.58;107247;1256;73885;-38
2023/02/05 07:15:00;;;;;;;;;;;;;;;-1.68;70.82;100080.14;107263;1260;60510;-38
2023/02/05 07:17:30;;;;;;;8.20;5.60;;;;;;;-1.72;70.81;100083.64;107196;1256;61296;-38
2023/02/05 07:19:59;;;;;;;6.70;5.00;;;;;;;-1.68;70.86;100081.48;107172;1256;74218;-38
2023/02/05 07:22:28;;;;;;;9.90;6.90;;;;;;;-1.62;70.65;100080.64;104937;1256;1003625;-38
2023/02/05 07:24:57;;;;;;;8.70;6.30;;;;;;;-1.56;70.70;100085.39;107185;1256;73320;-38
2023/02/05 07:27:26;;;;;;;9.50;7.00;;;;;;;-1.54;70.58;100087.15;107204;1256;60078;-39
2023/02/05 07:29:54;;;;;;;10.30;6.10;;;;;;;-1.52;70.54;100085.98;107195;1256;60923;-38
2023/02/05 07:32:23;;;;;;;8.80;5.60;;;;;;;-1.49;70.41;100083.93;107242;1256;74114;-38
2023/02/05 07:34:51;;;;;;;8.60;5.80;;;;;;;-1.48;70.38;100080.52;107291;1256;69976;-38
2023/02/05 07:37:20;;;;;;;7.90;6.10;;;;;;;-1.46;70.29;100081.05;107223;1256;73750;-38
2023/02/05 07:39:48;;;;;;;7.90;5.60;;;;;;;-1.40;70.10;100082.03;107198;1261;61803;-38
2023/02/05 07:42:17;;;;;;;7.00;5.20;;;;;;;-1.34;69.96;100083.38;107263;1256;61548;-38
2023/02/05 07:44:49;;;;;;;7.90;5.70;;;;;;;-1.32;69.89;100088.22;107136;1256;73232;-37
2023/02/05 07:47:17;;;;;;;8.10;5.70;;;;;;;-1.31;69.86;100093.21;107321;1256;69783;-38
2023/02/05 07:49:46;;;;;;;10.90;5.90;;;;;;;-1.26;69.93;100097.21;107312;1256;73860;-38
2023/02/05 07:52:14;;;;;;;9.50;6.50;;;;;;;-1.25;69.50;100098.05;107242;1257;60732;-38
2023/02/05 07:54:43;;;;;;;8.60;6.70;;;;;;;-1.26;69.36;100100.99;107274;1256;61504;-38
2023/02/05 07:57:11;;;;;;;9.10;6.00;;;;;;;-1.29;69.47;100100.45;107249;1256;74236;-38
2023/02/05 07:59:40;;;;;;;12.70;8.00;;;;;;;-1.25;69.44;100104.35;107322;1259;69608;-38
2023/02/05 08:02:10;;;;;;;11.50;6.40;;;;;;;-1.16;69.49;100107.02;107254;1261;73884;-38
2023/02/05 08:04:39;;;;;;;12.70;7.10;;;;;;;-1.12;69.50;100111.65;107077;1257;60692;-38
2023/02/05 08:07:10;;;;;;;9.80;6.80;;;;;;;-1.06;69.77;100110.98;107324;1261;60997;-38
2023/02/05 08:09:39;;;;;;;10.30;7.40;;;;;;;-0.99;69.38;100107.64;107223;1259;74276;-38
2023/02/05 08:12:08;;;;;;;9.80;7.50;;;;;;;-0.91;69.34;100108.16;107185;1261;70006;-38
2023/02/05 08:14:36;;;;;;;12.20;7.50;;;;;;;-0.81;69.24;100107.58;106498;1259;1005657;-38
2023/02/05 08:17:05;;;;;;;9.80;6.90;;;;;;;-0.67;69.09;100110.77;107249;1261;62421;-38
2023/02/05 08:19:34;;;;;;;9.40;5.90;;;;;;;-0.50;68.25;100121.79;105017;1256;1003770;-39
2023/02/05 08:22:02;;;;;;;7.60;5.70;;;;;;;-0.39;67.14;100121.67;107211;1256;75079;-39
2023/02/05 08:24:31;;;;;;;7.90;6.40;;;;;;;-0.44;66.93;100116.94;107201;1260;69788;-39
2023/02/05 08:27:00;;;;;;;7.20;4.70;;;;;;;-0.42;66.95;100128.60;107256;1257;72508;-39
2023/02/05 08:29:28;;;;;;;8.80;5.60;;;;;;;-0.39;66.77;100131.90;107240;1260;60789;-39
2023/02/05 08:31:57;;;;;;;8.30;6.30;;;;;;;-0.38;66.31;100140.05;107248;1257;61645;-39
2023/02/05 08:34:25;;;;;;;7.20;5.50;;;;;;;-0.39;66.34;100141.28;107293;1259;75040;-39
2023/02/05 08:36:56;;;;;;;8.30;5.70;;;;;;;-0.37;66.69;100143.95;107260;1257;70016;-39
2023/02/05 08:39:27;;;;;;;9.90;6.50;;;;;;;-0.38;66.30;100142.66;106469;1261;1003618;-39
2023/02/05 08:41:55;;;;;;;7.60;5.60;;;;;;;-0.42;66.24;100143.02;107240;1256;62189;-39
2023/02/05 08:44:24;;;;;;;8.10;6.00;;;;;;;-0.42;66.20;100146.51;107240;1256;61566;-39
2023/02/05 08:46:53;;;;;;;9.90;5.70;;;;;;;-0.36;66.18;100146.17;107269;1258;73690;-39
2023/02/05 08:49:21;;;;;;;7.70;5.60;;;;;;;-0.33;66.22;100150.92;107278;1259;67798;-37
2023/02/05 08:51:50;;;;;;;8.30;5.60;;;;;;;-0.31;66.56;100154.65;107285;1258;72654;-38
2023/02/05 08:54:19;;;;;;;8.30;6.10;;;;;;;-0.30;66.47;100155.39;107203;1256;60787;-38
2023/02/05 08:56:49;;;;;;;12.10;8.70;;;;;;;-0.32;66.28;100153.79;107250;1256;61586;-38
2023/02/05 08:59:18;;;;;;;7.70;5.80;;;;;;;-0.37;66.47;100149.16;107285;1257;74777;-39
2023/02/05 09:01:46;;;;;;;9.00;6.30;;;;;;;-0.41;66.63;100143.67;106537;1256;1004296;-39
2023/02/05 09:04:19;;;;;;;9.30;7.10;;;;;;;-0.42;66.70;100146.88;107300;1256;73849;-39
2023/02/05 09:06:48;;;;;;;9.10;6.20;;;;;;;-0.42;67.10;100142.83;107221;1256;62505;-39
2023/02/05 09:09:17;;;;;;;8.20;6.10;;;;;;;-0.30;67.26;100148.85;107196;1257;61323;-39
2023/02/05 09:11:46;;;;;;;8.80;6.10;;;;;;;-0.17;67.09;100147.01;107290;1257;75077;-39
2023/02/05 09:14:14;;;;;;;9.00;6.40;;;;;;;-0.11;66.49;100146.46;107205;1257;68951;-39
2023/02/05 09:16:42;;;;;;;8.30;5.80;;;;;;;-0.06;66.52;100142.93;107210;1256;73824;-39
2023/02/05 09:19:11;;;;;;;8.20;6.10;;;;;;;0.03;66.34;100144.52;107179;1257;60782;-39
2023/02/05 09:21:40;;;;;;;8.00;5.80;;;;;;;0.09;66.20;100145.19;107220;1261;61379;-39
2023/02/05 09:24:08;;;;;;;7.50;5.80;;;;;;;0.13;66.47;100139.84;107282;1257;75054;-39
2023/02/05 09:26:37;;;;;;;7.50;6.20;;;;;;;0.16;66.38;100142.66;107252;1257;68205;-39
2023/02/05 09:29:05;;;;;;;7.20;5.50;;;;;;;0.15;66.16;100141.65;107270;1257;72888;-39
2023/02/05 09:31:35;;;;;;;7.10;5.30;;;;;;;0.20;65.76;100141.27;107227;1258;60570;-39
2023/02/05 09:34:04;;;;;;;5.70;4.20;;;;;;;0.21;65.73;100146.64;107339;1256;61322;-39
2023/02/05 09:36:32;;;;;;;7.40;5.50;;;;;;;0.20;65.57;100144.14;107268;1256;73956;-39
2023/02/05 09:39:01;;;;;;;8.40;6.30;;;;;;;0.20;65.61;100141.21;107200;1257;69183;-39
2023/02/05 09:42:03;;;;;;;11.00;6.30;;;;;;;0.20;65.84;100139.50;107218;1256;73685;-39
2023/02/05 09:44:48;;;;;;;9.20;7.00;;;;;;;0.18;66.13;100139.30;107272;1257;60370;-39
2023/02/05 09:47:17;;;;;;;11.70;7.40;;;;;;;0.16;66.27;100143.73;107258;1256;61530;-39
2023/02/05 09:49:51;;;;;;;8.70;6.60;;;;;;;0.16;66.66;100150.14;107289;1256;75006;-39
2023/02/05 09:52:37;;;;;;;8.40;5.80;;;;;;;0.19;66.67;100150.81;107280;1256;69818;-39
2023/02/05 09:55:23;;;;;;;9.60;6.90;;;;;;;0.25;66.62;100150.80;107214;1256;73394;-39
2023/02/05 09:57:53;;;;;;;10.70;7.40;;;;;;;0.30;66.90;100155.95;107259;1261;60717;-39
2023/02/05 10:00:21;;;;;;;10.00;6.90;;;;;;;0.34;66.57;100158.27;107300;1257;61445;-39
2023/02/05 10:03:17;;;;;;;7.60;5.90;;;;;;;0.36;66.51;100161.00;107278;1257;75041;-39
2023/02/05 10:06:13;;;;;;;10.80;7.60;;;;;;;0.36;66.46;100165.09;107232;1256;69925;-39
2023/02/05 10:09:06;;;;;;;10.00;6.20;;;;;;;0.36;66.91;100167.02;107137;1262;73990;-38
2023/02/05 10:11:41;;;;;;;12.00;8.70;;;;;;;0.39;66.77;100170.05;107256;1260;60767;-38
2023/02/05 10:14:41;;;;;;;11.00;7.70;;;;;;;0.42;66.63;100172.59;107257;1256;61359;-38
2023/02/05 10:17:28;;;;;;;10.30;6.60;;;;;;;0.55;66.58;100169.46;107269;1260;75539;-38
2023/02/05 10:20:11;;;;;;;9.30;6.30;;;;;;;0.61;66.20;100171.67;107296;1261;67976;-38
2023/02/05 10:23:04;;;;;;;9.70;6.20;;;;;;;0.62;65.35;100171.13;107046;1256;73888;-38
2023/02/05 10:26:08;;;;;;;8.60;6.10;;;;;;;0.68;65.18;100169.93;107196;1257;60490;-38
2023/02/05 10:28:56;;;;;;;7.10;5.20;;;;;;;0.77;65.11;100165.93;107008;1257;61527;-38
2023/02/05 10:31:57;;;;;;;6.30;4.70;;;;;;;0.82;63.87;100165.27;107210;1261;74980;-38
2023/02/05 10:34:41;;;;;;;7.50;5.40;;;;;;;0.83;63.93;100166.00;107212;1257;69602;-39
2023/02/05 10:37:38;;;;;;;7.20;5.10;;;;;;;0.83;64.22;100166.55;107180;1257;73856;-39
2023/02/05 10:40:12;;;;;;;7.30;5.30;;;;;;;0.82;63.81;100167.83;107198;1258;60700;-38
2023/02/05 10:42:53;;;;;;;6.50;4.90;;;;;;;0.76;64.02;100172.03;107030;1256;60622;-39
2023/02/05 10:45:28;;;;;;;7.00;4.90;;;;;;;0.76;63.92;100173.90;107238;1262;74957;-38
2023/02/05 10:48:08;;;;;;;7.10;4.90;;;;;;;0.80;64.06;100173.71;107190;1260;69788;-39
2023/02/05 10:50:55;;;;;;;6.70;4.90;;;;;;;0.82;63.97;100171.19;104771;1262;1003700;-38
2023/02/05 10:53:24;;;;;;;6.90;5.30;;;;;;;0.82;63.67;100176.05;107255;1262;60431;-38
2023/02/05 10:55:53;;;;;;;8.50;6.40;;;;;;;0.78;63.73;100182.00;107249;1262;60581;-39
2023/02/05 10:58:39;;;;;;;5.70;4.30;;;;;;;0.68;63.94;100178.14;107203;1258;75007;-38
2023/02/05 11:01:14;;;;;;;8.30;5.50;;;;;;;0.67;64.37;100185.30;107209;1261;69949;-38
2023/02/05 11:04:09;;;;;;;7.50;5.60;;;;;;;0.62;64.70;100185.70;107214;1262;73297;-38
2023/02/05 11:06:43;;;;;;;7.10;5.30;;;;;;;0.60;64.66;100186.77;107199;1256;62316;-39
2023/02/05 11:09:24;;;;;;;7.10;5.50;;;;;;;0.61;64.48;100183.15;107214;1262;61549;-39
2023/02/05 11:11:58;;;;;;;7.20;5.30;;;;;;;0.64;64.39;100175.86;107190;1256;74627;-39
2023/02/05 11:14:35;;;;;;;9.00;6.00;;;;;;;0.69;64.44;100182.89;107248;1260;69991;-39
2023/02/05 11:17:19;;;;;;;7.40;5.50;;;;;;;0.72;64.46;100187.25;107310;1260;73857;-38
2023/02/05 11:20:13;;;;;;;7.50;5.80;;;;;;;0.76;64.20;100191.25;107229;1261;60851;-38
2023/02/05 11:22:45;;;;;;;8.90;6.00;;;;;;;0.78;63.59;100191.02;107318;1257;61651;-39
2023/02/05 11:25:14;;;;;;;7.50;5.80;;;;;;;0.75;63.56;100190.02;107303;1260;75086;-39
2023/02/05 11:27:56;;;;;;;6.50;5.00;;;;;;;0.70;63.60;100190.64;107301;1258;68631;-39
2023/02/05 11:30:35;;;;;;;7.10;5.60;;;;;;;0.61;63.60;100193.29;107282;1260;73803;-39
2023/02/05 11:33:26;;;;;;;7.20;5.80;;;;;;;0.56;64.04;100199.23;107297;1260;60764;-39
2023/02/05 11:35:56;;;;;;;5.40;4.40;;;;;;;0.55;64.28;100197.80;107288;1257;60294;-38
2023/02/05 11:38:28;;;;;;;;;;;;;;;0.62;64.12;100204.23;107306;1257;75544;-38
2023/02/05 11:41:07;;;;;;;6.40;4.80;;;;;;;0.61;64.26;100203.80;107259;1260;69991;-38
2023/02/05 11:43:37;;;;;;;5.40;4.20;;;;;;;0.62;64.27;100205.88;107198;1257;73508;-39
2023/02/05 11:46:09;;;;;;;7.70;5.00;;;;;;;0.66;64.17;100207.36;107297;1260;60791;-39
2023/02/05 11:48:55;;;;;;;8.00;5.90;;;;;;;0.66;64.06;100206.34;107290;1257;61517;-39
2023/02/05 11:51:27;;;;;;;8.40;5.30;;;;;;;0.72;64.30;100210.69;107206;1259;74057;-38
2023/02/05 11:53:57;;;;;;;5.50;4.40;;;;;;;0.72;63.83;100215.96;107169;1260;69657;-39